sensor_id;sensor_type;location;lat;lon;timestamp;temperature;humidity
5304;DHT22;2674;49.722;10.892;2023-02-18T00:00:18;10.40;99.90
5304;DHT22;2674;49.722;10.892;2023-02-18T00:02:45;10.40;99.90
5304;DHT22;2674;49.722;10.892;2023-02-18T00:05:12;10.40;99.90
5304;DHT22;2674;49.722;10.892;2023-02-18T00:07:39;10.30;99.90
5304;DHT22;2674;49.722;10.892;2023-02-18T00:10:09;10.30;99.90
5304;DHT22;2674;49.722;10.892;2023-02-18T00:12:35;10.30;99.90
5304;DHT22;2674;49.722;10.892;2023-02-18T00:15:01;10.30;99.90
5304;DHT22;2674;49.722;10.892;2023-02-18T00:17:28;10.30;99.90
5304;DHT22;2674;49.722;10.892;2023-02-18T00:19:54;10.30;99.90
5304;DHT22;2674;49.722;10.892;2023-02-18T00:22:20;10.30;99.90
5304;DHT22;2674;49.722;10.892;2023-02-18T00:24:45;10.30;99.90
5304;DHT22;2674;49.722;10.892;2023-02-18T00:27:11;10.30;99.90
5304;DHT22;2674;49.722;10.892;2023-02-18T00:29:37;10.30;99.90
5304;DHT22;2674;49.722;10.892;2023-02-18T00:32:03;10.30;99.90
5304;DHT22;2674;49.722;10.892;2023-02-18T00:34:28;10.30;99.90
5304;DHT22;2674;49.722;10.892;2023-02-18T00:36:54;10.30;99.90
5304;DHT22;2674;49.722;10.892;2023-02-18T00:39:20;10.40;99.90
5304;DHT22;2674;49.722;10.892;2023-02-18T00:41:46;10.40;99.90
5304;DHT22;2674;49.722;10.892;2023-02-18T00:44:13;10.40;99.90
5304;DHT22;2674;49.722;10.892;2023-02-18T00:46:38;10.30;99.90
5304;DHT22;2674;49.722;10.892;2023-02-18T00:49:04;10.30;99.90
5304;DHT22;2674;49.722;10.892;2023-02-18T00:51:30;10.20;99.90
5304;DHT22;2674;49.722;10.892;2023-02-18T00:53:57;10.20;99.90
5304;DHT22;2674;49.722;10.892;2023-02-18T00:56:22;10.10;99.90
5304;DHT22;2674;49.722;10.892;2023-02-18T00:58:49;10.10;99.90
5304;DHT22;2674;49.722;10.892;2023-02-18T01:01:15;10.00;99.90
5304;DHT22;2674;49.722;10.892;2023-02-18T01:03:41;10.00;99.90
5304;DHT22;2674;49.722;10.892;2023-02-18T01:06:08;10.00;99.90
5304;DHT22;2674;49.722;10.892;2023-02-18T01:08:36;10.00;99.90
5304;DHT22;2674;49.722;10.892;2023-02-18T01:11:03;10.00;99.90
5304;DHT22;2674;49.722;10.892;2023-02-18T01:13:30;10.00;99.90
5304;DHT22;2674;49.722;10.892;2023-02-18T01:15:56;9.90;99.90
5304;DHT22;2674;49.722;10.892;2023-02-18T01:18:24;9.90;99.90
5304;DHT22;2674;49.722;10.892;2023-02-18T01:20:50;9.90;99.90
5304;DHT22;2674;49.722;10.892;2023-02-18T01:23:15;9.90;99.90
5304;DHT22;2674;49.722;10.892;2023-02-18T01:25:41;9.90;99.90
5304;DHT22;2674;49.722;10.892;2023-02-18T01:28:09;9.80;99.90
5304;DHT22;2674;49.722;10.892;2023-02-18T01:30:35;9.80;99.90
5304;DHT22;2674;49.722;10.892;2023-02-18T01:33:01;9.80;99.90
5304;DHT22;2674;49.722;10.892;2023-02-18T01:35:27;9.80;99.90
5304;DHT22;2674;49.722;10.892;2023-02-18T01:37:53;9.80;99.90
5304;DHT22;2674;49.722;10.892;2023-02-18T01:40:22;9.80;99.90
5304;DHT22;2674;49.722;10.892;2023-02-18T01:42:49;9.80;99.90
5304;DHT22;2674;49.722;10.892;2023-02-18T01:48:26;9.80;99.90
5304;DHT22;2674;49.722;10.892;2023-02-18T01:50:59;9.80;99.90
5304;DHT22;2674;49.722;10.892;2023-02-18T01:53:37;9.90;99.90
5304;DHT22;2674;49.722;10.892;2023-02-18T01:56:07;9.90;99.90
5304;DHT22;2674;49.722;10.892;2023-02-18T01:58:35;9.90;99.90
5304;DHT22;2674;49.722;10.892;2023-02-18T02:01:01;9.90;99.90
5304;DHT22;2674;49.722;10.892;2023-02-18T02:03:27;9.90;99.90
5304;DHT22;2674;49.722;10.892;2023-02-18T02:05:53;10.00;99.90
5304;DHT22;2674;49.722;10.892;2023-02-18T02:08:20;10.00;99.90
5304;DHT22;2674;49.722;10.892;2023-02-18T02:30:00;9.80;99.90
5304;DHT22;2674;49.722;10.892;2023-02-18T02:33:10;9.80;99.90
5304;DHT22;2674;49.722;10.892;2023-02-18T02:41:42;9.80;99.90
5304;DHT22;2674;49.722;10.892;2023-02-18T02:44:29;9.80;99.90
5304;DHT22;2674;49.722;10.892;2023-02-18T02:47:08;9.70;99.90
5304;DHT22;2674;49.722;10.892;2023-02-18T02:52:26;9.70;99.90
5304;DHT22;2674;49.722;10.892;2023-02-18T02:54:53;9.70;99.90
5304;DHT22;2674;49.722;10.892;2023-02-18T02:59:51;9.70;99.90
5304;DHT22;2674;49.722;10.892;2023-02-18T03:02:40;9.70;99.90
5304;DHT22;2674;49.722;10.892;2023-02-18T03:05:51;9.70;99.90
5304;DHT22;2674;49.722;10.892;2023-02-18T03:11:08;9.70;99.90
5304;DHT22;2674;49.722;10.892;2023-02-18T03:14:06;9.70;99.90
5304;DHT22;2674;49.722;10.892;2023-02-18T03:19:13;9.70;99.90
5304;DHT22;2674;49.722;10.892;2023-02-18T03:21:50;9.70;99.90
5304;DHT22;2674;49.722;10.892;2023-02-18T03:24:22;9.70;99.90
5304;DHT22;2674;49.722;10.892;2023-02-18T03:27:03;9.70;99.90
5304;DHT22;2674;49.722;10.892;2023-02-18T03:29:30;9.70;99.90
5304;DHT22;2674;49.722;10.892;2023-02-18T03:32:01;9.70;99.90
5304;DHT22;2674;49.722;10.892;2023-02-18T03:34:35;9.60;99.90
5304;DHT22;2674;49.722;10.892;2023-02-18T03:37:02;9.70;99.90
5304;DHT22;2674;49.722;10.892;2023-02-18T03:39:29;9.70;99.90
5304;DHT22;2674;49.722;10.892;2023-02-18T03:41:56;9.70;99.90
5304;DHT22;2674;49.722;10.892;2023-02-18T03:44:24;9.70;99.90
5304;DHT22;2674;49.722;10.892;2023-02-18T03:46:50;9.70;99.90
5304;DHT22;2674;49.722;10.892;2023-02-18T03:49:16;9.80;99.90
5304;DHT22;2674;49.722;10.892;2023-02-18T03:51:42;9.80;99.90
5304;DHT22;2674;49.722;10.892;2023-02-18T03:54:09;9.80;99.90
5304;DHT22;2674;49.722;10.892;2023-02-18T03:56:38;9.80;99.90
5304;DHT22;2674;49.722;10.892;2023-02-18T03:59:04;9.80;99.90
5304;DHT22;2674;49.722;10.892;2023-02-18T04:01:31;9.80;99.90
5304;DHT22;2674;49.722;10.892;2023-02-18T04:03:57;9.80;99.90
5304;DHT22;2674;49.722;10.892;2023-02-18T04:06:22;9.80;99.90
5304;DHT22;2674;49.722;10.892;2023-02-18T04:08:48;9.80;99.90
5304;DHT22;2674;49.722;10.892;2023-02-18T04:11:14;9.80;99.90
5304;DHT22;2674;49.722;10.892;2023-02-18T04:13:40;9.70;99.90
5304;DHT22;2674;49.722;10.892;2023-02-18T04:16:06;9.70;99.90
5304;DHT22;2674;49.722;10.892;2023-02-18T04:18:32;9.70;99.90
5304;DHT22;2674;49.722;10.892;2023-02-18T04:20:58;9.70;99.90
5304;DHT22;2674;49.722;10.892;2023-02-18T04:23:23;9.70;99.90
5304;DHT22;2674;49.722;10.892;2023-02-18T04:25:49;9.70;99.90
5304;DHT22;2674;49.722;10.892;2023-02-18T04:28:15;9.70;99.90
5304;DHT22;2674;49.722;10.892;2023-02-18T04:30:46;9.70;99.90
5304;DHT22;2674;49.722;10.892;2023-02-18T04:33:12;9.70;99.90
5304;DHT22;2674;49.722;10.892;2023-02-18T04:35:38;9.70;99.90
5304;DHT22;2674;49.722;10.892;2023-02-18T04:38:06;9.80;99.90
5304;DHT22;2674;49.722;10.892;2023-02-18T04:40:32;9.70;99.90
5304;DHT22;2674;49.722;10.892;2023-02-18T04:42:59;9.70;99.90
5304;DHT22;2674;49.722;10.892;2023-02-18T04:45:26;9.70;99.90
5304;DHT22;2674;49.722;10.892;2023-02-18T04:47:52;9.70;99.90
5304;DHT22;2674;49.722;10.892;2023-02-18T04:50:18;9.70;99.90
5304;DHT22;2674;49.722;10.892;2023-02-18T04:52:44;9.70;99.90
5304;DHT22;2674;49.722;10.892;2023-02-18T04:55:10;9.60;99.90
5304;DHT22;2674;49.722;10.892;2023-02-18T04:57:36;9.60;99.90
5304;DHT22;2674;49.722;10.892;2023-02-18T05:00:04;9.60;99.90
5304;DHT22;2674;49.722;10.892;2023-02-18T05:02:32;9.60;99.90
5304;DHT22;2674;49.722;10.892;2023-02-18T05:04:58;9.50;99.90
5304;DHT22;2674;49.722;10.892;2023-02-18T05:07:24;9.50;99.90
5304;DHT22;2674;49.722;10.892;2023-02-18T05:09:49;9.50;99.90
5304;DHT22;2674;49.722;10.892;2023-02-18T05:12:15;9.50;99.90
5304;DHT22;2674;49.722;10.892;2023-02-18T05:14:41;9.50;99.90
5304;DHT22;2674;49.722;10.892;2023-02-18T05:17:07;9.50;99.90
5304;DHT22;2674;49.722;10.892;2023-02-18T05:19:33;9.50;99.90
5304;DHT22;2674;49.722;10.892;2023-02-18T05:21:59;9.50;99.90
5304;DHT22;2674;49.722;10.892;2023-02-18T05:24:25;9.50;99.90
5304;DHT22;2674;49.722;10.892;2023-02-18T05:26:51;9.50;99.90
5304;DHT22;2674;49.722;10.892;2023-02-18T05:29:20;9.50;99.90
5304;DHT22;2674;49.722;10.892;2023-02-18T05:31:46;9.50;99.90
5304;DHT22;2674;49.722;10.892;2023-02-18T05:34:11;9.50;99.90
5304;DHT22;2674;49.722;10.892;2023-02-18T05:36:37;9.50;99.90
5304;DHT22;2674;49.722;10.892;2023-02-18T05:39:03;9.40;99.90
5304;DHT22;2674;49.722;10.892;2023-02-18T05:41:29;9.40;99.90
5304;DHT22;2674;49.722;10.892;2023-02-18T05:43:55;9.40;99.90
5304;DHT22;2674;49.722;10.892;2023-02-18T05:46:39;9.50;99.90
5304;DHT22;2674;49.722;10.892;2023-02-18T05:49:05;9.40;99.90
5304;DHT22;2674;49.722;10.892;2023-02-18T05:51:30;9.50;99.90
5304;DHT22;2674;49.722;10.892;2023-02-18T05:53:56;9.40;99.90
5304;DHT22;2674;49.722;10.892;2023-02-18T05:56:22;9.50;99.90
5304;DHT22;2674;49.722;10.892;2023-02-18T05:58:48;9.50;99.90
5304;DHT22;2674;49.722;10.892;2023-02-18T06:01:14;9.50;99.90
5304;DHT22;2674;49.722;10.892;2023-02-18T06:03:40;9.40;99.90
5304;DHT22;2674;49.722;10.892;2023-02-18T06:06:06;9.50;99.90
5304;DHT22;2674;49.722;10.892;2023-02-18T06:08:32;9.50;99.90
5304;DHT22;2674;49.722;10.892;2023-02-18T06:10:57;9.50;99.90
5304;DHT22;2674;49.722;10.892;2023-02-18T06:13:23;9.40;99.90
5304;DHT22;2674;49.722;10.892;2023-02-18T06:15:50;9.40;99.90
5304;DHT22;2674;49.722;10.892;2023-02-18T06:18:16;9.40;99.90
5304;DHT22;2674;49.722;10.892;2023-02-18T06:20:42;9.40;99.90
5304;DHT22;2674;49.722;10.892;2023-02-18T06:23:08;9.40;99.90
5304;DHT22;2674;49.722;10.892;2023-02-18T06:25:34;9.40;99.90
5304;DHT22;2674;49.722;10.892;2023-02-18T06:28:00;9.40;99.90
5304;DHT22;2674;49.722;10.892;2023-02-18T06:30:25;9.40;99.90
5304;DHT22;2674;49.722;10.892;2023-02-18T06:32:51;9.40;99.90
5304;DHT22;2674;49.722;10.892;2023-02-18T06:35:17;9.40;99.90
5304;DHT22;2674;49.722;10.892;2023-02-18T06:37:44;9.40;99.90
5304;DHT22;2674;49.722;10.892;2023-02-18T06:40:11;9.40;99.90
5304;DHT22;2674;49.722;10.892;2023-02-18T06:42:36;9.40;99.90
5304;DHT22;2674;49.722;10.892;2023-02-18T06:45:02;9.40;99.90
5304;DHT22;2674;49.722;10.892;2023-02-18T06:47:28;9.40;99.90
5304;DHT22;2674;49.722;10.892;2023-02-18T06:49:54;9.50;99.90
5304;DHT22;2674;49.722;10.892;2023-02-18T06:52:20;9.40;99.90
5304;DHT22;2674;49.722;10.892;2023-02-18T06:54:46;9.40;99.90
5304;DHT22;2674;49.722;10.892;2023-02-18T06:57:12;9.40;99.90
5304;DHT22;2674;49.722;10.892;2023-02-18T06:59:37;9.40;99.90
5304;DHT22;2674;49.722;10.892;2023-02-18T07:02:03;9.40;99.90
5304;DHT22;2674;49.722;10.892;2023-02-18T07:04:29;9.40;99.90
5304;DHT22;2674;49.722;10.892;2023-02-18T07:06:58;9.40;99.90
5304;DHT22;2674;49.722;10.892;2023-02-18T07:09:24;9.50;99.90
5304;DHT22;2674;49.722;10.892;2023-02-18T07:11:50;9.50;99.90
5304;DHT22;2674;49.722;10.892;2023-02-18T07:14:19;9.50;99.90
5304;DHT22;2674;49.722;10.892;2023-02-18T07:16:44;9.60;99.90
5304;DHT22;2674;49.722;10.892;2023-02-18T07:19:10;9.60;99.90
5304;DHT22;2674;49.722;10.892;2023-02-18T07:21:36;9.70;99.90
5304;DHT22;2674;49.722;10.892;2023-02-18T07:24:02;9.70;99.90
5304;DHT22;2674;49.722;10.892;2023-02-18T07:26:28;9.70;99.90
5304;DHT22;2674;49.722;10.892;2023-02-18T07:28:54;9.70;99.90
5304;DHT22;2674;49.722;10.892;2023-02-18T07:31:19;9.70;99.90
5304;DHT22;2674;49.722;10.892;2023-02-18T07:33:45;9.70;99.90
5304;DHT22;2674;49.722;10.892;2023-02-18T07:36:11;9.70;99.90
5304;DHT22;2674;49.722;10.892;2023-02-18T07:38:37;9.70;99.90
5304;DHT22;2674;49.722;10.892;2023-02-18T07:41:03;9.70;99.90
5304;DHT22;2674;49.722;10.892;2023-02-18T07:43:29;9.70;99.90
5304;DHT22;2674;49.722;10.892;2023-02-18T07:45:55;9.70;99.90
5304;DHT22;2674;49.722;10.892;2023-02-18T07:48:20;9.70;99.90
5304;DHT22;2674;49.722;10.892;2023-02-18T07:50:46;9.80;99.90
5304;DHT22;2674;49.722;10.892;2023-02-18T07:53:14;9.80;99.90
5304;DHT22;2674;49.722;10.892;2023-02-18T07:55:40;9.80;99.90
5304;DHT22;2674;49.722;10.892;2023-02-18T07:58:19;9.80;99.90
5304;DHT22;2674;49.722;10.892;2023-02-18T08:00:46;9.80;99.90
5304;DHT22;2674;49.722;10.892;2023-02-18T08:03:17;9.90;99.90
5304;DHT22;2674;49.722;10.892;2023-02-18T08:05:43;9.90;99.90
5304;DHT22;2674;49.722;10.892;2023-02-18T08:08:13;9.90;99.90
5304;DHT22;2674;49.722;10.892;2023-02-18T08:10:40;9.90;99.90
5304;DHT22;2674;49.722;10.892;2023-02-18T08:13:06;10.00;99.90
5304;DHT22;2674;49.722;10.892;2023-02-18T08:15:31;10.00;99.90
5304;DHT22;2674;49.722;10.892;2023-02-18T08:17:57;10.10;99.90
5304;DHT22;2674;49.722;10.892;2023-02-18T08:20:23;10.10;99.90
5304;DHT22;2674;49.722;10.892;2023-02-18T08:22:49;10.20;99.90
5304;DHT22;2674;49.722;10.892;2023-02-18T08:25:15;10.20;99.90
5304;DHT22;2674;49.722;10.892;2023-02-18T08:27:40;10.30;99.90
5304;DHT22;2674;49.722;10.892;2023-02-18T08:30:07;10.30;99.90
5304;DHT22;2674;49.722;10.892;2023-02-18T08:32:33;10.30;99.90
5304;DHT22;2674;49.722;10.892;2023-02-18T08:34:59;10.40;99.90
5304;DHT22;2674;49.722;10.892;2023-02-18T08:37:24;10.40;99.90
5304;DHT22;2674;49.722;10.892;2023-02-18T08:39:50;10.50;99.90
5304;DHT22;2674;49.722;10.892;2023-02-18T08:42:16;10.50;99.90
5304;DHT22;2674;49.722;10.892;2023-02-18T08:44:42;10.60;99.90
5304;DHT22;2674;49.722;10.892;2023-02-18T08:47:08;10.60;99.90
5304;DHT22;2674;49.722;10.892;2023-02-18T08:49:34;10.70;99.90
5304;DHT22;2674;49.722;10.892;2023-02-18T08:52:02;10.70;99.90
5304;DHT22;2674;49.722;10.892;2023-02-18T08:54:28;10.90;99.90
5304;DHT22;2674;49.722;10.892;2023-02-18T08:56:55;10.90;99.90
5304;DHT22;2674;49.722;10.892;2023-02-18T08:59:24;11.00;99.90
5304;DHT22;2674;49.722;10.892;2023-02-18T09:01:50;11.10;99.90
5304;DHT22;2674;49.722;10.892;2023-02-18T09:04:16;11.10;99.90
5304;DHT22;2674;49.722;10.892;2023-02-18T09:06:42;11.20;99.90
5304;DHT22;2674;49.722;10.892;2023-02-18T09:09:08;11.20;99.90
5304;DHT22;2674;49.722;10.892;2023-02-18T09:11:34;11.20;99.90
5304;DHT22;2674;49.722;10.892;2023-02-18T09:14:00;11.20;99.90
5304;DHT22;2674;49.722;10.892;2023-02-18T09:16:27;11.20;99.90
5304;DHT22;2674;49.722;10.892;2023-02-18T09:18:55;11.20;99.90
5304;DHT22;2674;49.722;10.892;2023-02-18T09:21:21;11.20;99.90
5304;DHT22;2674;49.722;10.892;2023-02-18T09:23:48;11.20;99.90
5304;DHT22;2674;49.722;10.892;2023-02-18T09:26:16;11.20;99.90
5304;DHT22;2674;49.722;10.892;2023-02-18T09:28:43;11.20;99.90
5304;DHT22;2674;49.722;10.892;2023-02-18T09:31:15;11.20;99.90
5304;DHT22;2674;49.722;10.892;2023-02-18T09:33:48;11.20;99.90
5304;DHT22;2674;49.722;10.892;2023-02-18T09:36:15;11.20;99.90
5304;DHT22;2674;49.722;10.892;2023-02-18T09:38:42;11.10;99.90
5304;DHT22;2674;49.722;10.892;2023-02-18T09:41:22;11.20;99.90
5304;DHT22;2674;49.722;10.892;2023-02-18T09:43:52;11.10;99.90
5304;DHT22;2674;49.722;10.892;2023-02-18T09:46:32;11.10;99.90
5304;DHT22;2674;49.722;10.892;2023-02-18T09:49:20;11.10;99.90
5304;DHT22;2674;49.722;10.892;2023-02-18T09:51:47;11.20;99.90
5304;DHT22;2674;49.722;10.892;2023-02-18T09:54:16;11.20;99.90
5304;DHT22;2674;49.722;10.892;2023-02-18T09:56:43;11.30;99.90
5304;DHT22;2674;49.722;10.892;2023-02-18T09:59:18;11.30;99.90
5304;DHT22;2674;49.722;10.892;2023-02-18T10:01:46;11.30;99.90
5304;DHT22;2674;49.722;10.892;2023-02-18T10:06:51;11.40;99.90
5304;DHT22;2674;49.722;10.892;2023-02-18T10:09:24;11.40;99.90
5304;DHT22;2674;49.722;10.892;2023-02-18T10:11:55;11.40;99.90
5304;DHT22;2674;49.722;10.892;2023-02-18T10:14:22;11.30;99.90
5304;DHT22;2674;49.722;10.892;2023-02-18T10:16:50;11.30;99.90
5304;DHT22;2674;49.722;10.892;2023-02-18T10:19:33;11.30;99.90
5304;DHT22;2674;49.722;10.892;2023-02-18T10:22:01;11.30;99.90
5304;DHT22;2674;49.722;10.892;2023-02-18T10:24:29;11.30;99.90
5304;DHT22;2674;49.722;10.892;2023-02-18T10:26:56;11.30;99.90
5304;DHT22;2674;49.722;10.892;2023-02-18T10:29:23;11.30;99.90
5304;DHT22;2674;49.722;10.892;2023-02-18T10:34:40;11.30;99.90
5304;DHT22;2674;49.722;10.892;2023-02-18T10:37:37;11.30;99.90
5304;DHT22;2674;49.722;10.892;2023-02-18T10:43:11;11.40;99.90
5304;DHT22;2674;49.722;10.892;2023-02-18T10:51:24;11.60;99.90
5304;DHT22;2674;49.722;10.892;2023-02-18T10:53:52;11.70;99.90
5304;DHT22;2674;49.722;10.892;2023-02-18T10:59:13;11.70;99.90
5304;DHT22;2674;49.722;10.892;2023-02-18T11:01:40;11.60;99.90
5304;DHT22;2674;49.722;10.892;2023-02-18T11:04:18;11.60;99.90
5304;DHT22;2674;49.722;10.892;2023-02-18T11:06:50;11.60;99.90
5304;DHT22;2674;49.722;10.892;2023-02-18T11:12:02;11.50;99.90
5304;DHT22;2674;49.722;10.892;2023-02-18T11:14:43;11.60;99.90
5304;DHT22;2674;49.722;10.892;2023-02-18T11:17:20;11.60;99.90
5304;DHT22;2674;49.722;10.892;2023-02-18T11:19:52;11.60;99.90
5304;DHT22;2674;49.722;10.892;2023-02-18T11:22:23;11.60;99.90
5304;DHT22;2674;49.722;10.892;2023-02-18T11:24:58;11.60;99.90
5304;DHT22;2674;49.722;10.892;2023-02-18T11:28:24;11.60;99.90
5304;DHT22;2674;49.722;10.892;2023-02-18T11:30:38;11.60;99.90
5304;DHT22;2674;49.722;10.892;2023-02-18T11:33:18;11.60;99.90
5304;DHT22;2674;49.722;10.892;2023-02-18T11:35:53;11.60;99.90
5304;DHT22;2674;49.722;10.892;2023-02-18T11:38:34;11.60;99.90
5304;DHT22;2674;49.722;10.892;2023-02-18T11:41:07;11.60;99.90
5304;DHT22;2674;49.722;10.892;2023-02-18T11:43:34;11.60;99.90
5304;DHT22;2674;49.722;10.892;2023-02-18T11:46:15;11.70;99.90
5304;DHT22;2674;49.722;10.892;2023-02-18T11:48:41;11.70;99.90
5304;DHT22;2674;49.722;10.892;2023-02-18T11:56:29;11.60;99.90
5304;DHT22;2674;49.722;10.892;2023-02-18T11:58:57;11.60;99.90
5304;DHT22;2674;49.722;10.892;2023-02-18T12:04:16;11.60;99.90
5304;DHT22;2674;49.722;10.892;2023-02-18T12:12:02;11.60;99.90
5304;DHT22;2674;49.722;10.892;2023-02-18T12:14:31;11.60;99.90
5304;DHT22;2674;49.722;10.892;2023-02-18T12:17:21;11.60;99.90
5304;DHT22;2674;49.722;10.892;2023-02-18T12:19:54;11.60;99.90
5304;DHT22;2674;49.722;10.892;2023-02-18T12:22:41;11.70;99.90
5304;DHT22;2674;49.722;10.892;2023-02-18T12:25:39;11.70;99.90
5304;DHT22;2674;49.722;10.892;2023-02-18T12:28:26;11.80;99.90
5304;DHT22;2674;49.722;10.892;2023-02-18T12:31:02;11.90;99.90
5304;DHT22;2674;49.722;10.892;2023-02-18T12:51:31;12.30;99.90
5304;DHT22;2674;49.722;10.892;2023-02-18T12:54:41;12.50;99.90
5304;DHT22;2674;49.722;10.892;2023-02-18T13:13:20;12.80;74.90
5304;DHT22;2674;49.722;10.892;2023-02-18T13:16:10;12.80;73.00
5304;DHT22;2674;49.722;10.892;2023-02-18T13:21:26;12.90;65.10
5304;DHT22;2674;49.722;10.892;2023-02-18T13:24:10;13.00;63.80
5304;DHT22;2674;49.722;10.892;2023-02-18T13:26:38;13.00;39.90
5304;DHT22;2674;49.722;10.892;2023-02-18T13:29:18;13.10;30.70
5304;DHT22;2674;49.722;10.892;2023-02-18T13:34:59;13.20;16.50
5304;DHT22;2674;49.722;10.892;2023-02-18T13:37:45;13.30;20.60
5304;DHT22;2674;49.722;10.892;2023-02-18T13:40:21;13.40;8.00
5304;DHT22;2674;49.722;10.892;2023-02-18T13:42:52;13.30;1.00
5304;DHT22;2674;49.722;10.892;2023-02-18T13:45:30;13.20;1.00
5304;DHT22;2674;49.722;10.892;2023-02-18T13:47:57;13.10;1.00
5304;DHT22;2674;49.722;10.892;2023-02-18T13:58:35;12.80;1.00
5304;DHT22;2674;49.722;10.892;2023-02-18T14:01:05;12.80;1.00
5304;DHT22;2674;49.722;10.892;2023-02-18T14:08:51;12.60;1.00
5304;DHT22;2674;49.722;10.892;2023-02-18T14:11:41;12.50;1.00
5304;DHT22;2674;49.722;10.892;2023-02-18T14:19:39;12.40;1.00
5304;DHT22;2674;49.722;10.892;2023-02-18T14:25:01;12.30;1.00
5304;DHT22;2674;49.722;10.892;2023-02-18T14:27:29;12.20;1.00
5304;DHT22;2674;49.722;10.892;2023-02-18T14:30:05;12.20;1.00
5304;DHT22;2674;49.722;10.892;2023-02-18T14:32:33;12.10;7.20
5304;DHT22;2674;49.722;10.892;2023-02-18T14:35:16;12.10;13.40
5304;DHT22;2674;49.722;10.892;2023-02-18T14:38:03;12.00;12.80
5304;DHT22;2674;49.722;10.892;2023-02-18T14:40:39;12.00;9.60
5304;DHT22;2674;49.722;10.892;2023-02-18T14:49:05;11.90;9.20
5304;DHT22;2674;49.722;10.892;2023-02-18T14:51:35;11.90;10.00
5304;DHT22;2674;49.722;10.892;2023-02-18T14:54:06;11.80;11.10
5304;DHT22;2674;49.722;10.892;2023-02-18T14:57:15;11.80;13.00
5304;DHT22;2674;49.722;10.892;2023-02-18T14:59:42;11.80;12.20
5304;DHT22;2674;49.722;10.892;2023-02-18T15:02:21;11.80;12.60
5304;DHT22;2674;49.722;10.892;2023-02-18T15:04:48;11.80;11.90
5304;DHT22;2674;49.722;10.892;2023-02-18T15:07:18;11.80;13.00
5304;DHT22;2674;49.722;10.892;2023-02-18T15:09:52;11.80;12.80
5304;DHT22;2674;49.722;10.892;2023-02-18T15:12:20;11.70;13.50
5304;DHT22;2674;49.722;10.892;2023-02-18T15:14:51;11.70;15.60
5304;DHT22;2674;49.722;10.892;2023-02-18T15:17:21;11.70;18.30
5304;DHT22;2674;49.722;10.892;2023-02-18T15:20:01;11.60;18.50
5304;DHT22;2674;49.722;10.892;2023-02-18T15:22:32;11.60;18.40
5304;DHT22;2674;49.722;10.892;2023-02-18T15:25:00;11.60;19.20
5304;DHT22;2674;49.722;10.892;2023-02-18T15:27:32;11.50;20.50
5304;DHT22;2674;49.722;10.892;2023-02-18T15:30:27;11.50;20.60
5304;DHT22;2674;49.722;10.892;2023-02-18T15:32:58;11.50;22.60
5304;DHT22;2674;49.722;10.892;2023-02-18T15:35:29;11.50;22.60
5304;DHT22;2674;49.722;10.892;2023-02-18T15:37:58;11.50;23.30
5304;DHT22;2674;49.722;10.892;2023-02-18T15:40:33;11.50;25.00
5304;DHT22;2674;49.722;10.892;2023-02-18T15:43:01;11.50;27.00
5304;DHT22;2674;49.722;10.892;2023-02-18T15:45:38;11.40;28.10
5304;DHT22;2674;49.722;10.892;2023-02-18T15:48:06;11.40;27.50
5304;DHT22;2674;49.722;10.892;2023-02-18T15:50:34;11.40;26.30
5304;DHT22;2674;49.722;10.892;2023-02-18T15:53:14;11.40;28.40
5304;DHT22;2674;49.722;10.892;2023-02-18T15:55:42;11.30;29.90
5304;DHT22;2674;49.722;10.892;2023-02-18T15:58:37;11.30;34.40
5304;DHT22;2674;49.722;10.892;2023-02-18T16:01:04;11.30;35.90
5304;DHT22;2674;49.722;10.892;2023-02-18T16:03:43;11.20;39.00
5304;DHT22;2674;49.722;10.892;2023-02-18T16:06:18;11.20;41.60
5304;DHT22;2674;49.722;10.892;2023-02-18T16:09:11;11.20;39.80
5304;DHT22;2674;49.722;10.892;2023-02-18T16:11:41;11.20;42.40
5304;DHT22;2674;49.722;10.892;2023-02-18T16:14:25;11.20;47.00
5304;DHT22;2674;49.722;10.892;2023-02-18T16:25:24;11.00;80.40
5304;DHT22;2674;49.722;10.892;2023-02-18T16:30:37;11.00;73.30
5304;DHT22;2674;49.722;10.892;2023-02-18T16:33:07;10.90;77.00
5304;DHT22;2674;49.722;10.892;2023-02-18T16:35:33;10.80;76.90
5304;DHT22;2674;49.722;10.892;2023-02-18T16:37:59;10.90;69.70
5304;DHT22;2674;49.722;10.892;2023-02-18T16:42:52;10.90;71.60
5304;DHT22;2674;49.722;10.892;2023-02-18T16:45:19;10.90;75.00
5304;DHT22;2674;49.722;10.892;2023-02-18T16:47:46;10.90;67.80
5304;DHT22;2674;49.722;10.892;2023-02-18T16:50:20;10.90;66.70
5304;DHT22;2674;49.722;10.892;2023-02-18T16:52:47;10.90;69.40
5304;DHT22;2674;49.722;10.892;2023-02-18T16:55:26;10.90;74.50
5304;DHT22;2674;49.722;10.892;2023-02-18T16:57:52;10.90;80.70
5304;DHT22;2674;49.722;10.892;2023-02-18T17:00:18;10.80;81.60
5304;DHT22;2674;49.722;10.892;2023-02-18T17:02:48;10.80;89.60
5304;DHT22;2674;49.722;10.892;2023-02-18T17:05:32;10.80;88.20
5304;DHT22;2674;49.722;10.892;2023-02-18T17:08:14;10.70;91.20
5304;DHT22;2674;49.722;10.892;2023-02-18T17:10:41;10.70;99.30
5304;DHT22;2674;49.722;10.892;2023-02-18T17:13:13;10.70;99.90
5304;DHT22;2674;49.722;10.892;2023-02-18T17:15:39;10.60;99.90
5304;DHT22;2674;49.722;10.892;2023-02-18T17:18:06;10.60;99.90
5304;DHT22;2674;49.722;10.892;2023-02-18T17:20:32;10.50;99.90
5304;DHT22;2674;49.722;10.892;2023-02-18T17:22:58;10.50;99.90
5304;DHT22;2674;49.722;10.892;2023-02-18T17:25:44;10.40;99.90
5304;DHT22;2674;49.722;10.892;2023-02-18T17:28:10;10.40;99.90
5304;DHT22;2674;49.722;10.892;2023-02-18T17:30:38;10.30;99.90
5304;DHT22;2674;49.722;10.892;2023-02-18T17:33:05;10.30;99.90
5304;DHT22;2674;49.722;10.892;2023-02-18T17:35:32;10.20;99.90
5304;DHT22;2674;49.722;10.892;2023-02-18T17:37:58;10.20;99.90
5304;DHT22;2674;49.722;10.892;2023-02-18T17:40:26;10.20;99.90
5304;DHT22;2674;49.722;10.892;2023-02-18T17:42:54;10.10;99.90
5304;DHT22;2674;49.722;10.892;2023-02-18T17:45:35;10.10;99.90
5304;DHT22;2674;49.722;10.892;2023-02-18T17:48:01;9.90;99.90
5304;DHT22;2674;49.722;10.892;2023-02-18T17:50:29;10.10;99.90
5304;DHT22;2674;49.722;10.892;2023-02-18T17:52:55;10.10;99.90
5304;DHT22;2674;49.722;10.892;2023-02-18T17:55:23;10.00;99.90
5304;DHT22;2674;49.722;10.892;2023-02-18T17:57:50;10.00;99.90
5304;DHT22;2674;49.722;10.892;2023-02-18T18:00:26;10.10;99.90
5304;DHT22;2674;49.722;10.892;2023-02-18T18:03:09;10.00;99.90
5304;DHT22;2674;49.722;10.892;2023-02-18T18:05:37;10.00;99.90
5304;DHT22;2674;49.722;10.892;2023-02-18T18:08:17;10.00;99.90
5304;DHT22;2674;49.722;10.892;2023-02-18T18:10:50;10.00;99.90
5304;DHT22;2674;49.722;10.892;2023-02-18T18:13:26;9.90;99.90
5304;DHT22;2674;49.722;10.892;2023-02-18T18:15:53;9.90;99.90
5304;DHT22;2674;49.722;10.892;2023-02-18T18:18:19;9.90;99.90
5304;DHT22;2674;49.722;10.892;2023-02-18T18:20:49;9.90;99.90
5304;DHT22;2674;49.722;10.892;2023-02-18T18:23:16;10.10;99.90
5304;DHT22;2674;49.722;10.892;2023-02-18T18:25:49;9.90;99.90
5304;DHT22;2674;49.722;10.892;2023-02-18T18:28:16;9.90;99.90
5304;DHT22;2674;49.722;10.892;2023-02-18T18:30:45;9.90;99.90
5304;DHT22;2674;49.722;10.892;2023-02-18T18:33:21;9.90;99.90
5304;DHT22;2674;49.722;10.892;2023-02-18T18:35:49;9.90;99.90
5304;DHT22;2674;49.722;10.892;2023-02-18T18:38:17;9.90;99.90
5304;DHT22;2674;49.722;10.892;2023-02-18T18:40:44;9.90;99.90
5304;DHT22;2674;49.722;10.892;2023-02-18T18:43:23;9.90;99.90